Аэропорт: Хабаровск-Новый. Хабаровск

ICAO: UHHH

METAR:
2022-06-26 11:30:00
UHHH 261130Z 05003MPS CAVOK 17/13 Q1006 R23R/090060 NOSIG RMK QFE748/0998
METAR:
2022-06-26 10:54:00
TAF UHHH 261054Z 2612/2718 06003MPS 9999 SCT011 TEMPO 2616/2622 0300 FG VV002 FM262300 25005MPS CAVOK